createdAt,value
2023-09-18T00:00:10.182Z,99003.84
2023-09-18T00:02:11.722Z,98997.19
2023-09-18T00:04:13.486Z,98994.00
2023-09-18T00:06:14.965Z,98989.53
2023-09-18T00:08:17.940Z,98987.16
2023-09-18T00:10:19.377Z,98982.09
2023-09-18T00:12:20.841Z,98983.66
2023-09-18T00:14:22.270Z,98977.81
2023-09-18T00:16:24.122Z,98979.50
2023-09-18T00:18:25.924Z,98972.53
2023-09-18T00:20:28.278Z,98973.34
2023-09-18T00:22:29.910Z,98966.69
2023-09-18T00:24:31.316Z,98961.34
2023-09-18T00:26:32.821Z,98965.38
2023-09-18T00:28:34.257Z,98963.63
2023-09-18T00:30:36.009Z,98962.00
2023-09-18T00:32:37.456Z,98949.50
2023-09-18T00:34:39.422Z,98948.41
2023-09-18T00:36:40.981Z,98941.78
2023-09-18T00:38:42.398Z,98943.94
2023-09-18T00:40:44.245Z,98939.16
2023-09-18T00:42:46.612Z,98932.22
2023-09-18T00:44:48.141Z,98926.06
2023-09-18T00:46:50.427Z,98922.63
2023-09-18T00:48:52.469Z,98909.50
2023-09-18T00:50:54.158Z,98910.59
2023-09-18T00:52:55.921Z,98903.88
2023-09-18T00:54:57.542Z,98902.56
2023-09-18T00:56:59.141Z,98902.34
2023-09-18T00:59:01.240Z,98898.59
2023-09-18T01:01:04.467Z,98893.22
2023-09-18T01:03:06.348Z,98888.94
2023-09-18T01:05:07.994Z,98893.50
2023-09-18T01:07:09.429Z,98884.72
2023-09-18T01:09:14.127Z,98884.19
2023-09-18T01:11:25.055Z,98891.44
2023-09-18T01:13:35.036Z,98882.59
2023-09-18T01:15:46.177Z,98882.91
2023-09-18T01:17:48.153Z,98880.50
2023-09-18T01:19:49.681Z,98881.91
2023-09-18T01:21:51.082Z,98864.25
2023-09-18T01:23:52.797Z,98866.91
2023-09-18T01:25:54.273Z,98865.63
2023-09-18T01:27:55.742Z,98865.34
2023-09-18T01:29:57.172Z,98868.91
2023-09-18T01:31:59.320Z,98871.88
2023-09-18T01:34:01.986Z,98873.75
2023-09-18T01:36:04.695Z,98868.72
2023-09-18T01:38:07.227Z,98865.72
2023-09-18T01:40:09.179Z,98853.72
2023-09-18T01:42:10.861Z,98860.97
2023-09-18T01:44:12.762Z,98861.75
2023-09-18T01:46:14.646Z,98856.41
2023-09-18T01:48:16.246Z,98856.13
2023-09-18T01:50:17.726Z,98850.75
2023-09-18T01:52:19.474Z,98850.75
2023-09-18T01:54:21.393Z,98858.19
2023-09-18T01:56:24.332Z,98850.44
2023-09-18T01:58:25.821Z,98845.91
2023-09-18T02:00:27.792Z,98836.25
2023-09-18T02:02:43.157Z,98836.25
2023-09-18T02:05:06.867Z,98832.00
2023-09-18T02:07:10.930Z,98828.53
2023-09-18T02:09:12.749Z,98829.34
2023-09-18T02:11:14.254Z,98828.81
2023-09-18T02:13:17.882Z,98825.34
2023-09-18T02:15:24.280Z,98826.16
2023-09-18T02:17:25.804Z,98817.31
2023-09-18T02:19:27.382Z,98819.41
2023-09-18T02:21:29.049Z,98823.19
2023-09-18T02:23:30.519Z,98824.75
2023-09-18T02:25:31.967Z,98811.09
2023-09-18T02:27:33.458Z,98808.41
2023-09-18T02:29:35.072Z,98796.09
2023-09-18T02:31:36.583Z,98791.06
2023-09-18T02:33:39.100Z,98793.94
2023-09-18T02:35:41.800Z,98788.56
2023-09-18T02:37:43.267Z,98776.47
2023-09-18T02:39:44.664Z,98779.16
2023-09-18T02:41:46.092Z,98766.25
2023-09-18T02:43:47.586Z,98768.34
2023-09-18T02:45:48.996Z,98754.16
2023-09-18T02:47:50.542Z,98752.75
2023-09-18T02:49:52.017Z,98752.16
2023-09-18T02:51:53.446Z,98744.91
2023-09-18T02:53:54.921Z,98743.03
2023-09-18T02:55:57.932Z,98743.72
2023-09-18T02:58:00.114Z,98744.50
2023-09-18T03:00:01.562Z,98741.22
2023-09-18T03:02:03.279Z,98743.91
2023-09-18T03:04:05.132Z,98741.91
2023-09-18T03:06:07.581Z,98743.53
2023-09-18T03:08:09.972Z,98734.56
2023-09-18T03:10:14.646Z,98736.66
2023-09-18T03:12:16.089Z,98733.38
2023-09-18T03:14:17.585Z,98726.91
2023-09-18T03:16:19.258Z,98714.28
2023-09-18T03:18:20.833Z,98720.97
2023-09-18T03:20:27.595Z,98703.75
2023-09-18T03:22:29.095Z,98698.91
2023-09-18T03:24:30.724Z,98697.50
2023-09-18T03:26:32.273Z,98690.91
2023-09-18T03:28:33.750Z,98681.97
2023-09-18T03:30:35.242Z,98688.13
2023-09-18T03:32:37.254Z,98680.56
2023-09-18T03:36:41.166Z,98682.66
2023-09-18T03:38:42.728Z,98682.72
2023-09-18T03:40:44.620Z,98673.09
2023-09-18T03:42:47.094Z,98675.69
2023-09-18T03:44:48.518Z,98673.00
2023-09-18T03:46:49.930Z,98660.56
2023-09-18T03:48:51.772Z,98664.41
2023-09-18T03:50:53.496Z,98657.63
2023-09-18T03:52:54.913Z,98655.28
2023-09-18T03:54:56.617Z,98651.97
2023-09-18T03:56:58.261Z,98651.06
2023-09-18T03:59:02.071Z,98650.09
2023-09-18T04:01:03.870Z,98646.97
2023-09-18T04:03:05.502Z,98631.50
2023-09-18T04:05:08.499Z,98645.25
2023-09-18T04:07:10.336Z,98635.00
2023-09-18T04:09:11.814Z,98628.03
2023-09-18T04:11:13.463Z,98610.06
2023-09-18T04:13:14.926Z,98608.66
2023-09-18T04:15:16.644Z,98621.91
2023-09-18T04:17:18.386Z,98611.03
2023-09-18T04:19:20.318Z,98606.91
2023-09-18T04:21:22.610Z,98618.28
2023-09-18T04:23:26.719Z,98633.16
2023-09-18T04:25:28.174Z,98628.88
2023-09-18T04:27:29.606Z,98633.63
2023-09-18T04:29:31.175Z,98636.97
2023-09-18T04:31:33.017Z,98627.00
2023-09-18T04:33:34.625Z,98619.59
2023-09-18T04:35:36.175Z,98618.78
2023-09-18T04:37:38.933Z,98618.03
2023-09-18T04:39:40.740Z,98626.84
2023-09-18T04:41:42.222Z,98617.25
2023-09-18T04:43:43.830Z,98625.47
2023-09-18T04:45:46.284Z,98628.19
2023-09-18T04:47:47.843Z,98626.31
2023-09-18T04:49:50.398Z,98630.41
2023-09-18T04:51:51.813Z,98626.47
2023-09-18T04:53:53.408Z,98633.59
2023-09-18T04:55:55.442Z,98624.13
2023-09-18T04:57:59.218Z,98628.88
2023-09-18T05:00:15.571Z,98610.25
2023-09-18T05:02:18.350Z,98609.44
2023-09-18T05:04:19.826Z,98614.66
2023-09-18T05:06:21.820Z,98616.88
2023-09-18T05:08:23.698Z,98624.28
2023-09-18T05:10:25.287Z,98620.34
2023-09-18T05:12:26.819Z,98620.66
2023-09-18T05:14:28.895Z,98611.81
2023-09-18T05:16:30.398Z,98603.13
2023-09-18T05:18:32.788Z,98602.00
2023-09-18T05:20:35.899Z,98603.41
2023-09-18T05:22:37.527Z,98616.03
2023-09-18T05:24:39.717Z,98616.84
2023-09-18T05:26:41.159Z,98624.59
2023-09-18T05:28:42.671Z,98618.25
2023-09-18T05:30:44.143Z,98634.03
2023-09-18T05:32:46.904Z,98635.78
2023-09-18T05:34:48.595Z,98633.09
2023-09-18T05:36:50.226Z,98635.44
2023-09-18T05:38:51.940Z,98632.13
2023-09-18T05:40:53.655Z,98629.00
2023-09-18T05:42:57.091Z,98633.09
2023-09-18T05:44:58.533Z,98636.88
2023-09-18T05:47:00.299Z,98641.75
2023-09-18T05:49:02.336Z,98653.16
2023-09-18T05:51:04.947Z,98653.44
2023-09-18T05:53:06.560Z,98659.13
2023-09-18T05:55:08.586Z,98659.13
2023-09-18T05:57:10.051Z,98663.09
2023-09-18T05:59:11.601Z,98664.50
2023-09-18T06:01:13.074Z,98668.75
2023-09-18T06:03:16.112Z,98667.81
2023-09-18T06:05:18.738Z,98667.03
2023-09-18T06:07:20.292Z,98661.03
2023-09-18T06:09:22.074Z,98672.44
2023-09-18T06:11:23.587Z,98664.38
2023-09-18T06:13:25.802Z,98664.38
2023-09-18T06:15:27.254Z,98666.91
2023-09-18T06:17:28.839Z,98657.94
2023-09-18T06:19:30.355Z,98656.34
2023-09-18T06:21:32.875Z,98649.06
2023-09-18T06:23:38.722Z,98651.44
2023-09-18T06:25:40.864Z,98661.72
2023-09-18T06:27:43.300Z,98664.56
2023-09-18T06:29:44.785Z,98665.66
2023-09-18T06:31:47.198Z,98681.75
2023-09-18T06:33:48.683Z,98698.03
2023-09-18T06:35:50.147Z,98704.50
2023-09-18T06:37:51.710Z,98694.56
2023-09-18T06:39:53.207Z,98708.47
2023-09-18T06:41:54.726Z,98707.06
2023-09-18T06:43:56.215Z,98703.09
2023-09-18T06:45:58.919Z,98707.88
2023-09-18T06:48:01.495Z,98708.06
2023-09-18T06:50:05.376Z,98686.28
2023-09-18T06:52:07.408Z,98691.03
2023-09-18T06:54:09.029Z,98683.25
2023-09-18T06:56:10.557Z,98691.03
2023-09-18T06:58:12.045Z,98708.41
2023-09-18T07:00:16.041Z,98708.88
2023-09-18T07:02:17.869Z,98711.38
2023-09-18T07:04:19.362Z,98706.03
2023-09-18T07:06:21.360Z,98714.78
2023-09-18T07:08:24.262Z,98713.66
2023-09-18T07:10:25.834Z,98723.75
2023-09-18T07:12:27.345Z,98714.94
2023-09-18T07:14:28.957Z,98709.72
2023-09-18T07:16:30.542Z,98731.06
2023-09-18T07:18:32.034Z,98734.53
2023-09-18T07:20:33.539Z,98715.78
2023-09-18T07:22:35.042Z,98714.34
2023-09-18T07:24:36.514Z,98712.59
2023-09-18T07:26:38.077Z,98717.50
2023-09-18T07:28:42.386Z,98718.91
2023-09-18T07:30:44.794Z,98715.59
2023-09-18T07:32:47.213Z,98731.44
2023-09-18T07:34:48.810Z,98730.31
2023-09-18T07:36:55.107Z,98729.09
2023-09-18T07:38:57.532Z,98719.28
2023-09-18T07:40:59.402Z,98721.78
2023-09-18T07:43:00.981Z,98727.66
2023-09-18T07:45:03.308Z,98736.06
2023-09-18T07:47:04.902Z,98726.56
2023-09-18T07:49:06.370Z,98735.88
2023-09-18T07:53:16.210Z,98736.06
2023-09-18T07:55:17.788Z,98741.94
2023-09-18T07:57:20.493Z,98747.00
2023-09-18T07:59:21.933Z,98736.44
2023-09-18T08:01:23.873Z,98730.09
2023-09-18T08:03:26.024Z,98734.69
2023-09-18T08:05:32.765Z,98749.22
2023-09-18T08:07:34.559Z,98762.03
2023-09-18T08:09:37.423Z,98755.41
2023-09-18T08:11:42.955Z,98765.38
2023-09-18T08:13:44.472Z,98773.28
2023-09-18T08:15:46.285Z,98764.75
2023-09-18T08:17:49.639Z,98770.28
2023-09-18T08:19:53.367Z,98777.41
2023-09-18T08:21:55.706Z,98757.31
2023-09-18T08:23:57.112Z,98760.78
2023-09-18T08:25:59.366Z,98745.13
2023-09-18T08:28:01.564Z,98749.41
2023-09-18T08:30:03.369Z,98755.88
2023-09-18T08:32:04.882Z,98760.94
2023-09-18T08:34:06.405Z,98749.69
2023-09-18T08:36:07.956Z,98761.72
2023-09-18T08:38:09.509Z,98773.28
2023-09-18T08:40:12.654Z,98766.78
2023-09-18T08:42:16.307Z,98760.00
2023-09-18T08:44:18.945Z,98760.59
2023-09-18T08:46:22.007Z,98767.13
2023-09-18T08:48:23.639Z,98763.28
2023-09-18T08:50:26.418Z,98759.50
2023-09-18T08:52:29.026Z,98760.63
2023-09-18T08:54:30.540Z,98758.72
2023-09-18T08:56:35.022Z,98772.50
2023-09-18T08:58:40.866Z,98768.97
2023-09-18T09:00:42.341Z,98781.19
2023-09-18T09:02:49.820Z,98797.03
2023-09-18T09:04:52.932Z,98786.72
2023-09-18T09:06:54.634Z,98780.22
2023-09-18T09:08:56.763Z,98784.47
2023-09-18T09:11:01.465Z,98774.66
2023-09-18T09:13:03.753Z,98790.97
2023-09-18T09:15:05.918Z,98779.94
2023-09-18T09:17:07.580Z,98776.09
2023-09-18T09:19:09.066Z,98766.25
2023-09-18T09:21:11.724Z,98761.47
2023-09-18T09:23:13.152Z,98769.03
2023-09-18T09:25:29.480Z,98757.31
2023-09-18T09:27:43.190Z,98765.59
2023-09-18T09:29:58.396Z,98767.00
2023-09-18T09:32:14.441Z,98762.66
2023-09-18T09:34:28.001Z,98773.38
2023-09-18T09:36:29.513Z,98771.19
2023-09-18T09:38:34.765Z,98772.00
2023-09-18T09:40:39.118Z,98778.59
2023-09-18T09:42:44.227Z,98775.63
2023-09-18T09:44:47.089Z,98775.56
2023-09-18T09:46:49.450Z,98789.84
2023-09-18T09:49:03.050Z,98791.72
2023-09-18T09:51:04.547Z,98792.00
2023-09-18T09:53:06.018Z,98791.75
2023-09-18T09:55:26.354Z,98788.78
2023-09-18T09:57:27.762Z,98784.47
2023-09-18T09:59:30.480Z,98782.91
2023-09-18T10:01:32.381Z,98793.41
2023-09-18T10:03:35.076Z,98792.34
2023-09-18T10:05:39.644Z,98792.22
2023-09-18T10:07:41.739Z,98789.25
2023-09-18T10:09:44.884Z,98788.72
2023-09-18T10:11:50.068Z,98788.72
2023-09-18T10:14:20.047Z,98781.66
2023-09-18T10:16:26.865Z,98798.41
2023-09-18T10:18:47.693Z,98793.50
2023-09-18T10:20:54.927Z,98802.34
2023-09-18T10:22:58.102Z,98808.06
2023-09-18T10:25:18.434Z,98810.91
2023-09-18T10:27:22.643Z,98811.56
2023-09-18T10:29:27.477Z,98800.50
2023-09-18T10:31:29.865Z,98800.53
2023-09-18T10:33:32.019Z,98805.69
2023-09-18T10:35:33.476Z,98802.72
2023-09-18T10:37:37.110Z,98802.44
2023-09-18T10:39:43.292Z,98798.97
2023-09-18T10:41:46.249Z,98797.44
2023-09-18T10:43:51.000Z,98799.28
2023-09-18T10:45:53.066Z,98799.22
2023-09-18T10:47:56.370Z,98795.31
2023-09-18T10:49:57.998Z,98804.16
2023-09-18T10:52:00.319Z,98792.19
2023-09-18T10:54:01.832Z,98791.78
2023-09-18T10:56:07.159Z,98801.72
2023-09-18T10:58:08.681Z,98798.91
2023-09-18T11:00:15.229Z,98801.34
2023-09-18T11:02:18.511Z,98792.94
2023-09-18T11:04:21.863Z,98806.97
2023-09-18T11:06:27.662Z,98802.75
2023-09-18T11:08:35.004Z,98794.34
2023-09-18T11:10:38.187Z,98806.91
2023-09-18T11:12:46.407Z,98796.91
2023-09-18T11:14:51.201Z,98801.38
2023-09-18T11:16:52.966Z,98791.19
2023-09-18T11:18:55.754Z,98792.00
2023-09-18T11:21:11.329Z,98790.25
2023-09-18T11:23:15.856Z,98780.75
2023-09-18T11:25:35.765Z,98784.53
2023-09-18T11:27:59.025Z,98775.84
2023-09-18T11:30:02.250Z,98769.84
2023-09-18T11:32:05.788Z,98773.56
2023-09-18T11:34:13.194Z,98770.00
2023-09-18T11:36:23.691Z,98765.38
2023-09-18T11:38:25.289Z,98759.53
2023-09-18T11:40:42.766Z,98773.97
2023-09-18T11:43:20.641Z,98769.22
2023-09-18T11:45:22.219Z,98762.66
2023-09-18T11:47:28.920Z,98775.53
2023-09-18T11:49:33.117Z,98776.47
2023-09-18T11:54:02.149Z,98766.78
2023-09-18T11:56:04.530Z,98764.16
2023-09-18T11:58:06.925Z,98765.09
2023-09-18T12:00:23.242Z,98765.50
2023-09-18T12:02:37.089Z,98765.53
2023-09-18T12:04:40.381Z,98754.38
2023-09-18T12:06:43.127Z,98756.41
2023-09-18T12:08:44.817Z,98760.31
2023-09-18T12:10:50.222Z,98753.94
2023-09-18T12:12:51.710Z,98746.84
2023-09-18T12:14:53.259Z,98755.88
2023-09-18T12:16:54.721Z,98761.72
2023-09-18T12:18:56.197Z,98759.50
2023-09-18T12:21:00.103Z,98753.97
2023-09-18T12:23:03.634Z,98748.00
2023-09-18T12:25:16.650Z,98741.53
2023-09-18T12:27:18.889Z,98756.94
2023-09-18T12:29:24.223Z,98748.94
2023-09-18T12:31:25.830Z,98753.13
2023-09-18T12:33:27.494Z,98751.66
2023-09-18T12:35:31.155Z,98757.63
2023-09-18T12:37:32.800Z,98756.47
2023-09-18T12:39:34.311Z,98743.88
2023-09-18T12:41:36.522Z,98736.72
2023-09-18T12:43:42.883Z,98734.41
2023-09-18T12:45:45.178Z,98736.69
2023-09-18T12:47:47.168Z,98733.13
2023-09-18T12:49:48.739Z,98745.13
2023-09-18T12:52:00.365Z,98737.50
2023-09-18T12:54:07.623Z,98721.84
2023-09-18T12:56:15.962Z,98734.75
2023-09-18T12:58:20.965Z,98716.63
2023-09-18T13:00:24.086Z,98718.28
2023-09-18T13:04:33.054Z,98708.94
2023-09-18T13:06:39.127Z,98712.00
2023-09-18T13:08:40.640Z,98722.09
2023-09-18T13:10:46.660Z,98724.72
2023-09-18T13:12:55.039Z,98717.59
2023-09-18T13:15:06.139Z,98722.91
2023-09-18T13:17:07.751Z,98730.00
2023-09-18T13:19:09.257Z,98729.97
2023-09-18T13:21:12.627Z,98723.91
2023-09-18T13:23:14.234Z,98727.84
2023-09-18T13:25:22.118Z,98726.50
2023-09-18T13:27:24.434Z,98725.31
2023-09-18T13:29:26.157Z,98727.75
2023-09-18T13:31:29.330Z,98735.91
2023-09-18T13:33:31.058Z,98730.78
2023-09-18T13:35:34.035Z,98735.69
2023-09-18T13:37:36.622Z,98725.53
2023-09-18T13:39:38.135Z,98725.00
2023-09-18T13:41:42.288Z,98728.59
2023-09-18T13:43:44.364Z,98734.88
2023-09-18T13:45:46.770Z,98724.75
2023-09-18T13:47:50.868Z,98729.78
2023-09-18T13:49:53.117Z,98728.16
2023-09-18T13:51:55.586Z,98722.50
2023-09-18T13:53:57.891Z,98721.16
2023-09-18T13:55:59.470Z,98727.59
2023-09-18T13:58:04.120Z,98726.25
2023-09-18T14:00:07.970Z,98725.13
2023-09-18T14:02:09.796Z,98722.16
2023-09-18T14:04:11.974Z,98721.38
2023-09-18T14:06:13.558Z,98714.75
2023-09-18T14:08:15.104Z,98713.56
2023-09-18T14:10:16.796Z,98704.63
2023-09-18T14:12:18.282Z,98693.19
2023-09-18T14:14:19.826Z,98691.84
2023-09-18T14:16:21.336Z,98683.41
2023-09-18T14:18:22.943Z,98689.38
2023-09-18T14:20:24.549Z,98686.81
2023-09-18T14:22:26.339Z,98685.66
2023-09-18T14:24:27.918Z,98681.53
2023-09-18T14:26:29.362Z,98675.47
2023-09-18T14:28:34.242Z,98680.94
2023-09-18T14:30:35.912Z,98668.47
2023-09-18T14:32:37.838Z,98679.72
2023-09-18T14:34:40.038Z,98679.16
2023-09-18T14:36:41.510Z,98670.81
2023-09-18T14:38:43.010Z,98675.97
2023-09-18T14:40:44.534Z,98671.47
2023-09-18T14:42:45.983Z,98671.56
2023-09-18T14:44:47.891Z,98671.44
2023-09-18T14:46:50.389Z,98673.09
2023-09-18T14:48:52.312Z,98660.56
2023-09-18T14:50:56.966Z,98662.22
2023-09-18T14:52:58.413Z,98667.66
2023-09-18T14:57:27.819Z,98671.38
2023-09-18T14:59:41.451Z,98673.56
2023-09-18T15:01:44.690Z,98662.13
2023-09-18T15:03:46.551Z,98660.56
2023-09-18T15:05:48.679Z,98670.16
2023-09-18T15:07:50.185Z,98659.53
2023-09-18T15:09:51.602Z,98659.63
2023-09-18T15:11:53.189Z,98668.78
2023-09-18T15:13:54.616Z,98671.06
2023-09-18T15:15:56.423Z,98663.00
2023-09-18T15:17:58.775Z,98674.72
2023-09-18T15:20:01.132Z,98657.38
2023-09-18T15:22:04.068Z,98649.66
2023-09-18T15:24:05.802Z,98657.88
2023-09-18T15:26:08.114Z,98651.72
2023-09-18T15:28:09.673Z,98650.09
2023-09-18T15:30:12.432Z,98638.94
2023-09-18T15:32:14.051Z,98650.97
2023-09-18T15:34:15.637Z,98652.50
2023-09-18T15:36:17.159Z,98651.59
2023-09-18T15:38:18.686Z,98648.94
2023-09-18T15:40:21.900Z,98655.25
2023-09-18T15:42:23.426Z,98654.09
2023-09-18T15:44:24.914Z,98651.69
2023-09-18T15:46:26.434Z,98652.03
2023-09-18T15:48:29.395Z,98649.44
2023-09-18T15:50:38.260Z,98654.50
2023-09-18T15:52:41.985Z,98654.72
2023-09-18T15:54:45.220Z,98646.63
2023-09-18T15:56:46.770Z,98660.34
2023-09-18T15:58:49.132Z,98657.56
2023-09-18T16:00:51.182Z,98657.84
2023-09-18T16:02:52.894Z,98652.44
2023-09-18T16:04:54.521Z,98673.19
2023-09-18T16:06:55.940Z,98646.84
2023-09-18T16:08:58.096Z,98646.06
2023-09-18T16:11:00.567Z,98633.66
2023-09-18T16:13:02.247Z,98637.97
2023-09-18T16:15:05.688Z,98635.09
2023-09-18T16:17:07.261Z,98625.72
2023-09-18T16:19:08.793Z,98630.34
2023-09-18T16:21:10.269Z,98630.56
2023-09-18T16:23:11.722Z,98628.72
2023-09-18T16:25:13.482Z,98628.25
2023-09-18T16:27:15.056Z,98628.47
2023-09-18T16:29:16.539Z,98635.38
2023-09-18T16:31:17.982Z,98635.28
2023-09-18T16:33:19.547Z,98640.31
2023-09-18T16:35:21.045Z,98640.53
2023-09-18T16:37:22.518Z,98645.00
2023-09-18T16:39:26.690Z,98654.56
2023-09-18T16:41:28.757Z,98646.72
2023-09-18T16:43:36.294Z,98655.13
2023-09-18T16:45:38.237Z,98654.56
2023-09-18T16:47:39.848Z,98649.03
2023-09-18T16:49:41.417Z,98654.00
2023-09-18T16:51:45.709Z,98654.31
2023-09-18T16:53:47.216Z,98655.31
2023-09-18T16:55:48.784Z,98649.28
2023-09-18T16:57:51.700Z,98646.31
2023-09-18T16:59:55.215Z,98656.78
2023-09-18T17:01:58.065Z,98657.88
2023-09-18T17:03:59.744Z,98656.16
2023-09-18T17:06:01.702Z,98649.50
2023-09-18T17:08:07.685Z,98642.88
2023-09-18T17:10:10.616Z,98646.53
2023-09-18T17:12:13.468Z,98644.28
2023-09-18T17:14:15.501Z,98638.13
2023-09-18T17:16:20.145Z,98643.13
2023-09-18T17:18:21.758Z,98644.34
2023-09-18T17:20:23.871Z,98648.47
2023-09-18T17:22:25.556Z,98647.72
2023-09-18T17:24:27.006Z,98655.28
2023-09-18T17:26:28.703Z,98659.44
2023-09-18T17:28:30.226Z,98644.38
2023-09-18T17:30:32.662Z,98652.34
2023-09-18T17:32:35.820Z,98646.63
2023-09-18T17:34:37.321Z,98652.88
2023-09-18T17:36:41.679Z,98649.41
2023-09-18T17:38:45.161Z,98644.19
2023-09-18T17:40:46.796Z,98639.00
2023-09-18T17:42:48.256Z,98645.94
2023-09-18T17:44:50.452Z,98647.97
2023-09-18T17:46:51.910Z,98644.16
2023-09-18T17:48:53.341Z,98644.34
2023-09-18T17:50:54.863Z,98642.28
2023-09-18T17:52:56.313Z,98643.88
2023-09-18T17:54:59.066Z,98646.88
2023-09-18T17:57:00.883Z,98653.81
2023-09-18T17:59:02.907Z,98660.44
2023-09-18T18:01:06.423Z,98659.19
2023-09-18T18:03:08.401Z,98668.97
2023-09-18T18:05:10.319Z,98661.56
2023-09-18T18:07:11.899Z,98662.81
2023-09-18T18:09:13.430Z,98664.38
2023-09-18T18:11:14.940Z,98663.94
2023-09-18T18:13:16.544Z,98672.75
2023-09-18T18:15:18.119Z,98674.31
2023-09-18T18:17:20.049Z,98664.84
2023-09-18T18:19:22.357Z,98661.66
2023-09-18T18:21:23.864Z,98668.00
2023-09-18T18:23:25.310Z,98671.78
2023-09-18T18:25:27.192Z,98669.13
2023-09-18T18:27:29.761Z,98672.13
2023-09-18T18:29:31.216Z,98661.38
2023-09-18T18:31:33.653Z,98675.16
2023-09-18T18:33:35.828Z,98741.50
2023-09-18T18:35:39.848Z,98747.94
2023-09-18T18:37:41.350Z,98777.41
2023-09-18T18:39:42.746Z,98797.75
2023-09-18T18:41:44.210Z,98774.88
2023-09-18T18:43:47.729Z,98764.56
2023-09-18T18:45:53.466Z,98768.28
2023-09-18T18:47:56.349Z,98765.13
2023-09-18T18:49:57.816Z,98768.75
2023-09-18T18:51:59.274Z,98769.53
2023-09-18T18:54:07.160Z,98780.50
2023-09-18T18:56:08.887Z,98784.41
2023-09-18T18:58:10.325Z,98780.09
2023-09-18T19:00:12.754Z,98792.47
2023-09-18T19:02:14.402Z,98807.50
2023-09-18T19:04:17.315Z,98817.72
2023-09-18T19:06:18.840Z,98826.94
2023-09-18T19:08:20.255Z,98835.06
2023-09-18T19:10:21.671Z,98835.00
2023-09-18T19:12:23.310Z,98841.22
2023-09-18T19:14:24.730Z,98841.44
2023-09-18T19:16:26.271Z,98836.03
2023-09-18T19:18:31.131Z,98833.97
2023-09-18T19:20:33.202Z,98825.72
2023-09-18T19:22:35.868Z,98823.06
2023-09-18T19:24:37.686Z,98838.81
2023-09-18T19:26:39.198Z,98818.81
2023-09-18T19:28:40.733Z,98816.78
2023-09-18T19:30:46.918Z,98806.59
2023-09-18T19:32:48.616Z,98805.94
2023-09-18T19:34:50.641Z,98806.25
2023-09-18T19:37:06.794Z,98805.81
2023-09-18T19:39:10.212Z,98804.78
2023-09-18T19:41:12.460Z,98800.03
2023-09-18T19:43:14.746Z,98799.66
2023-09-18T19:45:16.337Z,98797.63
2023-09-18T19:47:18.548Z,98796.91
2023-09-18T19:49:20.024Z,98800.66
2023-09-18T19:51:21.517Z,98791.09
2023-09-18T19:53:22.937Z,98786.41
2023-09-18T19:55:29.706Z,98786.19
2023-09-18T19:57:31.815Z,98793.91
2023-09-18T19:59:33.240Z,98797.78
2023-09-18T20:01:35.173Z,98785.53
2023-09-18T20:03:36.844Z,98788.69
2023-09-18T20:05:38.463Z,98790.41
2023-09-18T20:07:39.918Z,98793.09
2023-09-18T20:09:41.726Z,98788.66
2023-09-18T20:11:43.293Z,98788.66
2023-09-18T20:13:44.727Z,98789.25
2023-09-18T20:15:46.175Z,98799.41
2023-09-18T20:17:48.231Z,98795.94
2023-09-18T20:19:50.376Z,98802.66
2023-09-18T20:21:52.022Z,98801.34
2023-09-18T20:23:54.437Z,98804.56
2023-09-18T20:25:57.638Z,98812.09
2023-09-18T20:27:59.067Z,98818.56
2023-09-18T20:30:01.722Z,98821.75
2023-09-18T20:32:04.292Z,98814.53
2023-09-18T20:34:06.441Z,98818.56
2023-09-18T20:36:08.064Z,98827.66
2023-09-18T20:40:14.129Z,98823.94
2023-09-18T20:42:15.575Z,98827.16
2023-09-18T20:44:16.989Z,98825.03
2023-09-18T20:46:18.461Z,98828.22
2023-09-18T20:48:20.585Z,98822.66
2023-09-18T20:50:22.146Z,98817.59
2023-09-18T20:52:24.155Z,98814.94
2023-09-18T20:54:25.594Z,98817.59
2023-09-18T20:56:28.084Z,98822.41
2023-09-18T20:58:30.313Z,98822.38
2023-09-18T21:00:33.265Z,98823.69
2023-09-18T21:02:34.899Z,98823.19
2023-09-18T21:04:37.941Z,98823.44
2023-09-18T21:06:39.369Z,98827.94
2023-09-18T21:08:41.433Z,98829.28
2023-09-18T21:10:42.906Z,98831.78
2023-09-18T21:12:44.618Z,98832.81
2023-09-18T21:14:46.187Z,98834.16
2023-09-18T21:16:47.670Z,98825.38
2023-09-18T21:18:50.203Z,98828.03
2023-09-18T21:20:52.856Z,98838.44
2023-09-18T21:22:54.405Z,98840.94
2023-09-18T21:24:55.841Z,98838.22
2023-09-18T21:26:57.318Z,98843.78
2023-09-18T21:28:59.612Z,98840.56
2023-09-18T21:31:16.370Z,98835.50
2023-09-18T21:33:17.941Z,98836.56
2023-09-18T21:35:20.150Z,98846.28
2023-09-18T21:37:22.381Z,98848.09
2023-09-18T21:39:23.804Z,98853.69
2023-09-18T21:41:25.256Z,98853.13
2023-09-18T21:43:26.701Z,98858.72
2023-09-18T21:45:28.423Z,98855.00
2023-09-18T21:47:30.003Z,98859.28
2023-09-18T21:49:31.618Z,98858.78
2023-09-18T21:51:35.436Z,98869.94
2023-09-18T21:55:47.497Z,98869.16
2023-09-18T21:57:48.982Z,98868.31
2023-09-18T21:59:50.449Z,98876.78
2023-09-18T22:01:55.292Z,98879.22
2023-09-18T22:03:56.809Z,98883.75
2023-09-18T22:05:58.352Z,98885.94
2023-09-18T22:08:00.420Z,98888.28
2023-09-18T22:10:01.868Z,98892.09
2023-09-18T22:12:05.160Z,98895.50
2023-09-18T22:14:06.859Z,98888.34
2023-09-18T22:16:08.774Z,98887.00
2023-09-18T22:18:10.813Z,98891.84
2023-09-18T22:20:14.983Z,98892.69
2023-09-18T22:22:16.547Z,98899.88
2023-09-18T22:24:20.083Z,98898.81
2023-09-18T22:26:21.913Z,98908.50
2023-09-18T22:28:23.903Z,98902.03
2023-09-18T22:30:25.570Z,98899.38
2023-09-18T22:32:27.138Z,98912.72
2023-09-18T22:34:29.383Z,98906.56
2023-09-18T22:36:30.896Z,98903.66
2023-09-18T22:39:22.005Z,98902.53
2023-09-18T22:41:23.992Z,98903.91
2023-09-18T22:44:03.860Z,98909.22
2023-09-18T22:46:43.113Z,98908.66
2023-09-18T22:49:22.337Z,98910.22
2023-09-18T22:52:01.317Z,98915.28
2023-09-18T22:54:03.619Z,98927.88
2023-09-18T22:56:08.518Z,98931.94
2023-09-18T22:58:11.416Z,98928.94
2023-09-18T23:00:19.157Z,98923.38
2023-09-18T23:02:21.197Z,98928.38
2023-09-18T23:04:22.989Z,98927.03
2023-09-18T23:06:27.758Z,98935.59
2023-09-18T23:08:31.115Z,98932.69
2023-09-18T23:10:32.649Z,98937.22
2023-09-18T23:12:35.410Z,98933.97
2023-09-18T23:14:38.412Z,98941.72
2023-09-18T23:16:39.910Z,98934.53
2023-09-18T23:18:41.378Z,98943.63
2023-09-18T23:20:42.818Z,98940.72
2023-09-18T23:22:45.008Z,98943.66
2023-09-18T23:24:47.193Z,98940.75
2023-09-18T23:26:49.537Z,98950.38
2023-09-18T23:28:50.970Z,98943.97
2023-09-18T23:30:53.321Z,98951.16
2023-09-18T23:32:57.094Z,98950.34
2023-09-18T23:35:00.680Z,98946.09
2023-09-18T23:37:04.496Z,98953.03
2023-09-18T23:39:06.881Z,98948.81
2023-09-18T23:41:09.872Z,98956.00
2023-09-18T23:43:11.548Z,98962.44
2023-09-18T23:45:15.229Z,98965.88
2023-09-18T23:47:16.698Z,98964.56
2023-09-18T23:49:21.289Z,98965.38
2023-09-18T23:51:24.721Z,98961.44
2023-09-18T23:53:36.625Z,98969.97
2023-09-18T23:55:38.238Z,98968.41
2023-09-18T23:57:39.734Z,98973.47
2023-09-18T23:59:41.137Z,98982.53
